sensor_id;sensor_type;location;lat;lon;timestamp;P1;durP1;ratioP1;P2;durP2;ratioP2
8285;SDS011;4181;43.416;24.598;2023-04-21T00:01:28;6.10;;;5.50;;
8285;SDS011;4181;43.416;24.598;2023-04-21T00:03:54;10.30;;;5.40;;
8285;SDS011;4181;43.416;24.598;2023-04-21T00:06:20;8.67;;;6.00;;
8285;SDS011;4181;43.416;24.598;2023-04-21T00:08:47;7.70;;;5.90;;
8285;SDS011;4181;43.416;24.598;2023-04-21T00:11:13;7.57;;;5.30;;
8285;SDS011;4181;43.416;24.598;2023-04-21T00:13:39;5.43;;;4.93;;
8285;SDS011;4181;43.416;24.598;2023-04-21T00:16:04;8.67;;;5.70;;
8285;SDS011;4181;43.416;24.598;2023-04-21T00:18:30;7.63;;;5.50;;
8285;SDS011;4181;43.416;24.598;2023-04-21T00:20:56;12.40;;;5.70;;
8285;SDS011;4181;43.416;24.598;2023-04-21T00:23:21;9.87;;;7.37;;
8285;SDS011;4181;43.416;24.598;2023-04-21T00:25:47;12.63;;;8.23;;
8285;SDS011;4181;43.416;24.598;2023-04-21T00:28:12;7.57;;;6.50;;
8285;SDS011;4181;43.416;24.598;2023-04-21T00:30:38;6.67;;;5.60;;
8285;SDS011;4181;43.416;24.598;2023-04-21T00:33:03;6.53;;;5.50;;
8285;SDS011;4181;43.416;24.598;2023-04-21T00:35:29;9.20;;;5.70;;
8285;SDS011;4181;43.416;24.598;2023-04-21T00:37:54;7.60;;;5.70;;
8285;SDS011;4181;43.416;24.598;2023-04-21T00:40:21;9.33;;;5.30;;
8285;SDS011;4181;43.416;24.598;2023-04-21T00:42:47;7.93;;;5.80;;
8285;SDS011;4181;43.416;24.598;2023-04-21T00:45:12;8.80;;;6.47;;
8285;SDS011;4181;43.416;24.598;2023-04-21T00:47:39;7.10;;;5.50;;
8285;SDS011;4181;43.416;24.598;2023-04-21T00:50:05;6.40;;;5.80;;
8285;SDS011;4181;43.416;24.598;2023-04-21T00:52:31;7.40;;;5.93;;
8285;SDS011;4181;43.416;24.598;2023-04-21T00:54:58;7.43;;;6.50;;
8285;SDS011;4181;43.416;24.598;2023-04-21T00:57:24;7.20;;;6.07;;
8285;SDS011;4181;43.416;24.598;2023-04-21T00:59:52;8.37;;;5.90;;
8285;SDS011;4181;43.416;24.598;2023-04-21T01:02:17;7.17;;;5.57;;
8285;SDS011;4181;43.416;24.598;2023-04-21T01:04:43;8.23;;;6.30;;
8285;SDS011;4181;43.416;24.598;2023-04-21T01:07:09;8.33;;;6.37;;
8285;SDS011;4181;43.416;24.598;2023-04-21T01:09:35;6.30;;;5.67;;
8285;SDS011;4181;43.416;24.598;2023-04-21T01:12:01;8.80;;;6.87;;
8285;SDS011;4181;43.416;24.598;2023-04-21T01:14:38;8.00;;;5.80;;
8285;SDS011;4181;43.416;24.598;2023-04-21T01:17:05;7.10;;;6.17;;
8285;SDS011;4181;43.416;24.598;2023-04-21T01:19:32;7.30;;;6.10;;
8285;SDS011;4181;43.416;24.598;2023-04-21T01:22:03;9.80;;;6.13;;
8285;SDS011;4181;43.416;24.598;2023-04-21T01:24:35;10.03;;;6.67;;
8285;SDS011;4181;43.416;24.598;2023-04-21T01:27:14;9.40;;;6.73;;
8285;SDS011;4181;43.416;24.598;2023-04-21T01:29:43;9.10;;;5.87;;
8285;SDS011;4181;43.416;24.598;2023-04-21T01:32:13;7.83;;;5.63;;
8285;SDS011;4181;43.416;24.598;2023-04-21T01:34:42;9.03;;;5.57;;
8285;SDS011;4181;43.416;24.598;2023-04-21T01:37:09;8.47;;;5.80;;
8285;SDS011;4181;43.416;24.598;2023-04-21T01:39:40;8.83;;;6.17;;
8285;SDS011;4181;43.416;24.598;2023-04-21T01:42:07;7.43;;;6.00;;
8285;SDS011;4181;43.416;24.598;2023-04-21T01:44:32;8.40;;;6.30;;
8285;SDS011;4181;43.416;24.598;2023-04-21T01:46:59;7.90;;;6.10;;
8285;SDS011;4181;43.416;24.598;2023-04-21T01:49:24;12.20;;;6.57;;
8285;SDS011;4181;43.416;24.598;2023-04-21T01:51:51;9.37;;;7.30;;
8285;SDS011;4181;43.416;24.598;2023-04-21T01:54:16;12.73;;;7.83;;
8285;SDS011;4181;43.416;24.598;2023-04-21T01:56:41;11.70;;;7.40;;
8285;SDS011;4181;43.416;24.598;2023-04-21T01:59:07;10.73;;;7.17;;
8285;SDS011;4181;43.416;24.598;2023-04-21T02:01:32;9.07;;;7.90;;
8285;SDS011;4181;43.416;24.598;2023-04-21T02:04:00;7.57;;;6.67;;
8285;SDS011;4181;43.416;24.598;2023-04-21T02:06:26;7.97;;;6.20;;
8285;SDS011;4181;43.416;24.598;2023-04-21T02:08:51;16.23;;;7.37;;
8285;SDS011;4181;43.416;24.598;2023-04-21T02:11:17;9.73;;;6.43;;
8285;SDS011;4181;43.416;24.598;2023-04-21T02:13:42;13.70;;;9.43;;
8285;SDS011;4181;43.416;24.598;2023-04-21T02:16:08;10.83;;;7.93;;
8285;SDS011;4181;43.416;24.598;2023-04-21T02:18:35;15.57;;;10.47;;
8285;SDS011;4181;43.416;24.598;2023-04-21T02:21:04;13.17;;;9.70;;
8285;SDS011;4181;43.416;24.598;2023-04-21T02:23:30;11.47;;;8.87;;
8285;SDS011;4181;43.416;24.598;2023-04-21T02:25:55;10.90;;;6.90;;
8285;SDS011;4181;43.416;24.598;2023-04-21T02:28:21;9.17;;;6.60;;
8285;SDS011;4181;43.416;24.598;2023-04-21T02:30:46;13.10;;;7.73;;
8285;SDS011;4181;43.416;24.598;2023-04-21T02:33:11;12.33;;;6.87;;
8285;SDS011;4181;43.416;24.598;2023-04-21T02:35:37;7.20;;;6.47;;
8285;SDS011;4181;43.416;24.598;2023-04-21T02:38:02;9.47;;;6.53;;
8285;SDS011;4181;43.416;24.598;2023-04-21T02:40:31;8.63;;;6.83;;
8285;SDS011;4181;43.416;24.598;2023-04-21T02:42:57;15.67;;;11.30;;
8285;SDS011;4181;43.416;24.598;2023-04-21T02:45:22;9.07;;;6.80;;
8285;SDS011;4181;43.416;24.598;2023-04-21T02:47:47;14.13;;;9.33;;
8285;SDS011;4181;43.416;24.598;2023-04-21T02:50:13;8.23;;;7.20;;
8285;SDS011;4181;43.416;24.598;2023-04-21T02:52:38;8.20;;;7.10;;
8285;SDS011;4181;43.416;24.598;2023-04-21T02:55:04;8.00;;;7.17;;
8285;SDS011;4181;43.416;24.598;2023-04-21T02:57:30;10.17;;;6.30;;
8285;SDS011;4181;43.416;24.598;2023-04-21T02:59:55;7.37;;;6.67;;
8285;SDS011;4181;43.416;24.598;2023-04-21T03:02:21;9.47;;;6.37;;
8285;SDS011;4181;43.416;24.598;2023-04-21T03:04:46;8.70;;;6.70;;
8285;SDS011;4181;43.416;24.598;2023-04-21T03:07:12;13.93;;;7.50;;
8285;SDS011;4181;43.416;24.598;2023-04-21T03:09:38;7.53;;;6.37;;
8285;SDS011;4181;43.416;24.598;2023-04-21T03:12:04;9.50;;;6.23;;
8285;SDS011;4181;43.416;24.598;2023-04-21T03:14:29;10.00;;;6.30;;
8285;SDS011;4181;43.416;24.598;2023-04-21T03:16:55;7.70;;;6.10;;
8285;SDS011;4181;43.416;24.598;2023-04-21T03:19:20;10.20;;;6.90;;
8285;SDS011;4181;43.416;24.598;2023-04-21T03:21:46;9.57;;;6.60;;
8285;SDS011;4181;43.416;24.598;2023-04-21T03:24:11;8.17;;;6.47;;
8285;SDS011;4181;43.416;24.598;2023-04-21T03:26:40;9.23;;;6.83;;
8285;SDS011;4181;43.416;24.598;2023-04-21T03:29:05;8.70;;;6.87;;
8285;SDS011;4181;43.416;24.598;2023-04-21T03:31:31;9.53;;;6.60;;
8285;SDS011;4181;43.416;24.598;2023-04-21T03:33:57;13.13;;;7.47;;
8285;SDS011;4181;43.416;24.598;2023-04-21T03:36:22;11.80;;;8.00;;
8285;SDS011;4181;43.416;24.598;2023-04-21T03:38:48;9.20;;;7.40;;
8285;SDS011;4181;43.416;24.598;2023-04-21T03:41:13;12.07;;;6.93;;
8285;SDS011;4181;43.416;24.598;2023-04-21T03:43:39;8.93;;;7.37;;
8285;SDS011;4181;43.416;24.598;2023-04-21T03:46:04;9.37;;;7.23;;
8285;SDS011;4181;43.416;24.598;2023-04-21T03:48:30;11.20;;;7.30;;
8285;SDS011;4181;43.416;24.598;2023-04-21T03:50:56;6.93;;;6.33;;
8285;SDS011;4181;43.416;24.598;2023-04-21T03:53:21;7.50;;;5.93;;
8285;SDS011;4181;43.416;24.598;2023-04-21T03:55:48;7.00;;;6.30;;
8285;SDS011;4181;43.416;24.598;2023-04-21T03:58:15;7.00;;;6.30;;
8285;SDS011;4181;43.416;24.598;2023-04-21T04:00:40;9.83;;;7.70;;
8285;SDS011;4181;43.416;24.598;2023-04-21T04:03:06;8.40;;;6.27;;
8285;SDS011;4181;43.416;24.598;2023-04-21T04:05:32;7.67;;;6.87;;
8285;SDS011;4181;43.416;24.598;2023-04-21T04:07:59;8.07;;;6.17;;
8285;SDS011;4181;43.416;24.598;2023-04-21T04:10:25;12.93;;;7.10;;
8285;SDS011;4181;43.416;24.598;2023-04-21T04:12:50;9.93;;;7.20;;
8285;SDS011;4181;43.416;24.598;2023-04-21T04:15:16;15.17;;;9.60;;
8285;SDS011;4181;43.416;24.598;2023-04-21T04:17:41;12.43;;;7.13;;
8285;SDS011;4181;43.416;24.598;2023-04-21T04:20:07;13.77;;;7.77;;
8285;SDS011;4181;43.416;24.598;2023-04-21T04:22:33;8.77;;;6.23;;
8285;SDS011;4181;43.416;24.598;2023-04-21T04:24:58;8.77;;;7.20;;
8285;SDS011;4181;43.416;24.598;2023-04-21T04:27:25;12.50;;;7.03;;
8285;SDS011;4181;43.416;24.598;2023-04-21T04:29:52;15.23;;;6.97;;
8285;SDS011;4181;43.416;24.598;2023-04-21T04:32:18;20.07;;;7.57;;
8285;SDS011;4181;43.416;24.598;2023-04-21T04:34:43;10.80;;;7.00;;
8285;SDS011;4181;43.416;24.598;2023-04-21T04:37:09;16.03;;;7.40;;
8285;SDS011;4181;43.416;24.598;2023-04-21T04:39:35;17.87;;;8.43;;
8285;SDS011;4181;43.416;24.598;2023-04-21T04:42:01;10.43;;;6.90;;
8285;SDS011;4181;43.416;24.598;2023-04-21T04:44:28;7.57;;;6.77;;
8285;SDS011;4181;43.416;24.598;2023-04-21T04:46:54;13.83;;;6.93;;
8285;SDS011;4181;43.416;24.598;2023-04-21T04:49:20;17.77;;;8.70;;
8285;SDS011;4181;43.416;24.598;2023-04-21T04:51:46;8.47;;;7.33;;
8285;SDS011;4181;43.416;24.598;2023-04-21T04:54:11;12.60;;;6.80;;
8285;SDS011;4181;43.416;24.598;2023-04-21T04:56:36;8.70;;;7.07;;
8285;SDS011;4181;43.416;24.598;2023-04-21T04:59:02;9.20;;;7.43;;
8285;SDS011;4181;43.416;24.598;2023-04-21T05:01:27;10.63;;;6.70;;
8285;SDS011;4181;43.416;24.598;2023-04-21T05:03:55;10.50;;;6.80;;
8285;SDS011;4181;43.416;24.598;2023-04-21T05:06:21;9.67;;;6.97;;
8285;SDS011;4181;43.416;24.598;2023-04-21T05:08:47;8.67;;;6.60;;
8285;SDS011;4181;43.416;24.598;2023-04-21T05:11:12;9.67;;;6.90;;
8285;SDS011;4181;43.416;24.598;2023-04-21T05:13:38;9.70;;;6.90;;
8285;SDS011;4181;43.416;24.598;2023-04-21T05:16:03;9.33;;;6.73;;
8285;SDS011;4181;43.416;24.598;2023-04-21T05:18:30;13.27;;;7.00;;
8285;SDS011;4181;43.416;24.598;2023-04-21T05:20:55;10.97;;;6.87;;
8285;SDS011;4181;43.416;24.598;2023-04-21T05:23:21;8.07;;;6.20;;
8285;SDS011;4181;43.416;24.598;2023-04-21T05:25:46;10.40;;;7.87;;
8285;SDS011;4181;43.416;24.598;2023-04-21T05:28:12;7.43;;;6.73;;
8285;SDS011;4181;43.416;24.598;2023-04-21T05:30:38;11.03;;;6.67;;
8285;SDS011;4181;43.416;24.598;2023-04-21T05:33:04;12.00;;;8.57;;
8285;SDS011;4181;43.416;24.598;2023-04-21T05:35:30;9.90;;;7.13;;
8285;SDS011;4181;43.416;24.598;2023-04-21T05:37:55;8.27;;;7.40;;
8285;SDS011;4181;43.416;24.598;2023-04-21T05:40:20;10.00;;;7.20;;
8285;SDS011;4181;43.416;24.598;2023-04-21T05:42:46;8.17;;;6.97;;
8285;SDS011;4181;43.416;24.598;2023-04-21T05:45:11;8.83;;;7.70;;
8285;SDS011;4181;43.416;24.598;2023-04-21T05:47:37;7.60;;;6.77;;
8285;SDS011;4181;43.416;24.598;2023-04-21T05:50:03;7.80;;;7.10;;
8285;SDS011;4181;43.416;24.598;2023-04-21T05:52:29;9.17;;;7.13;;
8285;SDS011;4181;43.416;24.598;2023-04-21T05:54:56;9.10;;;7.47;;
8285;SDS011;4181;43.416;24.598;2023-04-21T05:57:23;9.77;;;7.57;;
8285;SDS011;4181;43.416;24.598;2023-04-21T05:59:49;13.60;;;7.43;;
8285;SDS011;4181;43.416;24.598;2023-04-21T06:02:14;10.73;;;7.27;;
8285;SDS011;4181;43.416;24.598;2023-04-21T06:04:40;10.70;;;7.13;;
8285;SDS011;4181;43.416;24.598;2023-04-21T06:07:05;11.70;;;7.30;;
8285;SDS011;4181;43.416;24.598;2023-04-21T06:09:32;8.43;;;7.23;;
8285;SDS011;4181;43.416;24.598;2023-04-21T06:11:58;8.53;;;7.20;;
8285;SDS011;4181;43.416;24.598;2023-04-21T06:14:23;9.23;;;7.33;;
8285;SDS011;4181;43.416;24.598;2023-04-21T06:16:49;10.37;;;7.80;;
8285;SDS011;4181;43.416;24.598;2023-04-21T06:19:14;9.70;;;8.03;;
8285;SDS011;4181;43.416;24.598;2023-04-21T06:21:40;11.90;;;8.53;;
8285;SDS011;4181;43.416;24.598;2023-04-21T06:24:05;9.50;;;8.43;;
8285;SDS011;4181;43.416;24.598;2023-04-21T06:26:31;11.73;;;9.13;;
8285;SDS011;4181;43.416;24.598;2023-04-21T06:28:56;11.93;;;8.40;;
8285;SDS011;4181;43.416;24.598;2023-04-21T06:31:22;9.53;;;7.67;;
8285;SDS011;4181;43.416;24.598;2023-04-21T06:33:47;10.57;;;8.03;;
8285;SDS011;4181;43.416;24.598;2023-04-21T06:36:13;10.10;;;7.47;;
8285;SDS011;4181;43.416;24.598;2023-04-21T06:38:38;10.67;;;8.43;;
8285;SDS011;4181;43.416;24.598;2023-04-21T06:41:05;10.27;;;8.73;;
8285;SDS011;4181;43.416;24.598;2023-04-21T06:43:31;9.70;;;7.90;;
8285;SDS011;4181;43.416;24.598;2023-04-21T06:45:57;10.67;;;8.43;;
8285;SDS011;4181;43.416;24.598;2023-04-21T06:48:22;9.30;;;8.20;;
8285;SDS011;4181;43.416;24.598;2023-04-21T06:50:48;11.33;;;7.70;;
8285;SDS011;4181;43.416;24.598;2023-04-21T06:53:14;9.10;;;7.90;;
8285;SDS011;4181;43.416;24.598;2023-04-21T06:55:41;9.57;;;8.00;;
8285;SDS011;4181;43.416;24.598;2023-04-21T06:58:07;8.97;;;8.07;;
8285;SDS011;4181;43.416;24.598;2023-04-21T07:00:33;10.47;;;8.40;;
8285;SDS011;4181;43.416;24.598;2023-04-21T07:02:59;9.87;;;8.27;;
8285;SDS011;4181;43.416;24.598;2023-04-21T07:05:25;15.13;;;8.43;;
8285;SDS011;4181;43.416;24.598;2023-04-21T07:07:50;11.27;;;7.50;;
8285;SDS011;4181;43.416;24.598;2023-04-21T07:10:15;9.90;;;7.70;;
8285;SDS011;4181;43.416;24.598;2023-04-21T07:12:44;10.10;;;8.33;;
8285;SDS011;4181;43.416;24.598;2023-04-21T07:15:10;13.17;;;8.37;;
8285;SDS011;4181;43.416;24.598;2023-04-21T07:17:36;10.67;;;8.70;;
8285;SDS011;4181;43.416;24.598;2023-04-21T07:20:02;9.30;;;8.00;;
8285;SDS011;4181;43.416;24.598;2023-04-21T07:22:27;10.87;;;7.97;;
8285;SDS011;4181;43.416;24.598;2023-04-21T07:24:53;15.77;;;8.83;;
8285;SDS011;4181;43.416;24.598;2023-04-21T07:27:18;12.10;;;9.30;;
8285;SDS011;4181;43.416;24.598;2023-04-21T07:29:44;11.47;;;7.60;;
8285;SDS011;4181;43.416;24.598;2023-04-21T07:32:09;11.87;;;7.83;;
8285;SDS011;4181;43.416;24.598;2023-04-21T07:34:35;11.70;;;8.10;;
8285;SDS011;4181;43.416;24.598;2023-04-21T07:37:00;9.40;;;7.73;;
8285;SDS011;4181;43.416;24.598;2023-04-21T07:39:25;11.30;;;8.43;;
8285;SDS011;4181;43.416;24.598;2023-04-21T07:41:51;12.10;;;8.27;;
8285;SDS011;4181;43.416;24.598;2023-04-21T07:44:17;20.93;;;9.67;;
8285;SDS011;4181;43.416;24.598;2023-04-21T07:46:43;8.50;;;7.60;;
8285;SDS011;4181;43.416;24.598;2023-04-21T07:49:08;15.80;;;10.13;;
8285;SDS011;4181;43.416;24.598;2023-04-21T07:51:34;15.13;;;10.03;;
8285;SDS011;4181;43.416;24.598;2023-04-21T07:54:00;14.53;;;10.10;;
8285;SDS011;4181;43.416;24.598;2023-04-21T07:56:25;13.90;;;9.90;;
8285;SDS011;4181;43.416;24.598;2023-04-21T07:58:50;9.23;;;8.17;;
8285;SDS011;4181;43.416;24.598;2023-04-21T08:01:16;12.27;;;9.87;;
8285;SDS011;4181;43.416;24.598;2023-04-21T08:03:42;15.60;;;11.70;;
8285;SDS011;4181;43.416;24.598;2023-04-21T08:06:07;15.80;;;9.67;;
8285;SDS011;4181;43.416;24.598;2023-04-21T08:08:32;11.47;;;9.10;;
8285;SDS011;4181;43.416;24.598;2023-04-21T08:10:58;18.67;;;11.37;;
8285;SDS011;4181;43.416;24.598;2023-04-21T08:13:23;17.87;;;11.03;;
8285;SDS011;4181;43.416;24.598;2023-04-21T08:15:52;17.73;;;10.10;;
8285;SDS011;4181;43.416;24.598;2023-04-21T08:18:18;13.23;;;8.77;;
8285;SDS011;4181;43.416;24.598;2023-04-21T08:20:44;9.90;;;8.90;;
8285;SDS011;4181;43.416;24.598;2023-04-21T08:23:11;17.20;;;8.97;;
8285;SDS011;4181;43.416;24.598;2023-04-21T08:25:40;11.50;;;9.27;;
8285;SDS011;4181;43.416;24.598;2023-04-21T08:28:05;11.53;;;9.47;;
8285;SDS011;4181;43.416;24.598;2023-04-21T08:30:31;10.83;;;9.47;;
8285;SDS011;4181;43.416;24.598;2023-04-21T08:32:56;15.40;;;9.30;;
8285;SDS011;4181;43.416;24.598;2023-04-21T08:35:23;12.57;;;9.10;;
8285;SDS011;4181;43.416;24.598;2023-04-21T08:37:48;10.83;;;9.73;;
8285;SDS011;4181;43.416;24.598;2023-04-21T08:40:17;11.17;;;9.97;;
8285;SDS011;4181;43.416;24.598;2023-04-21T08:42:43;13.57;;;10.80;;
8285;SDS011;4181;43.416;24.598;2023-04-21T08:45:09;16.33;;;10.57;;
8285;SDS011;4181;43.416;24.598;2023-04-21T08:47:36;13.87;;;10.43;;
8285;SDS011;4181;43.416;24.598;2023-04-21T08:50:02;14.47;;;9.50;;
8285;SDS011;4181;43.416;24.598;2023-04-21T08:52:28;13.70;;;10.60;;
8285;SDS011;4181;43.416;24.598;2023-04-21T08:54:54;12.20;;;9.43;;
8285;SDS011;4181;43.416;24.598;2023-04-21T08:57:20;14.57;;;10.23;;
8285;SDS011;4181;43.416;24.598;2023-04-21T08:59:46;14.73;;;9.67;;
8285;SDS011;4181;43.416;24.598;2023-04-21T09:02:12;10.87;;;8.93;;
8285;SDS011;4181;43.416;24.598;2023-04-21T09:04:46;10.93;;;8.40;;
8285;SDS011;4181;43.416;24.598;2023-04-21T09:10:01;13.20;;;9.97;;
8285;SDS011;4181;43.416;24.598;2023-04-21T09:12:28;11.67;;;7.90;;
8285;SDS011;4181;43.416;24.598;2023-04-21T09:14:54;14.50;;;7.90;;
8285;SDS011;4181;43.416;24.598;2023-04-21T09:17:26;14.37;;;8.77;;
8285;SDS011;4181;43.416;24.598;2023-04-21T09:19:56;9.07;;;6.70;;
8285;SDS011;4181;43.416;24.598;2023-04-21T09:22:25;15.57;;;7.93;;
8285;SDS011;4181;43.416;24.598;2023-04-21T09:24:56;9.60;;;6.67;;
8285;SDS011;4181;43.416;24.598;2023-04-21T09:27:23;10.90;;;6.80;;
8285;SDS011;4181;43.416;24.598;2023-04-21T09:29:49;10.57;;;6.80;;
8285;SDS011;4181;43.416;24.598;2023-04-21T09:32:18;9.27;;;6.83;;
8285;SDS011;4181;43.416;24.598;2023-04-21T09:34:44;11.90;;;5.93;;
8285;SDS011;4181;43.416;24.598;2023-04-21T09:37:11;11.00;;;6.77;;
8285;SDS011;4181;43.416;24.598;2023-04-21T09:39:38;8.00;;;7.20;;
8285;SDS011;4181;43.416;24.598;2023-04-21T09:42:05;10.77;;;6.37;;
8285;SDS011;4181;43.416;24.598;2023-04-21T09:44:30;10.67;;;5.73;;
8285;SDS011;4181;43.416;24.598;2023-04-21T09:46:58;8.13;;;6.27;;
8285;SDS011;4181;43.416;24.598;2023-04-21T09:49:30;9.50;;;5.63;;
8285;SDS011;4181;43.416;24.598;2023-04-21T09:52:00;7.17;;;5.60;;
8285;SDS011;4181;43.416;24.598;2023-04-21T09:54:30;8.07;;;5.30;;
8285;SDS011;4181;43.416;24.598;2023-04-21T09:56:58;14.97;;;5.87;;
8285;SDS011;4181;43.416;24.598;2023-04-21T10:02:03;11.03;;;6.17;;
8285;SDS011;4181;43.416;24.598;2023-04-21T10:04:30;8.90;;;6.00;;
8285;SDS011;4181;43.416;24.598;2023-04-21T10:06:57;6.83;;;5.30;;
8285;SDS011;4181;43.416;24.598;2023-04-21T10:09:24;6.33;;;5.27;;
8285;SDS011;4181;43.416;24.598;2023-04-21T10:11:55;10.40;;;4.60;;
8285;SDS011;4181;43.416;24.598;2023-04-21T10:14:21;8.53;;;4.33;;
8285;SDS011;4181;43.416;24.598;2023-04-21T10:17:23;11.27;;;4.47;;
8285;SDS011;4181;43.416;24.598;2023-04-21T10:20:03;9.30;;;4.70;;
8285;SDS011;4181;43.416;24.598;2023-04-21T10:22:33;8.10;;;4.70;;
8285;SDS011;4181;43.416;24.598;2023-04-21T10:25:00;11.37;;;4.43;;
8285;SDS011;4181;43.416;24.598;2023-04-21T10:27:32;6.87;;;4.23;;
8285;SDS011;4181;43.416;24.598;2023-04-21T10:29:59;11.33;;;4.47;;
8285;SDS011;4181;43.416;24.598;2023-04-21T10:32:38;12.97;;;4.10;;
8285;SDS011;4181;43.416;24.598;2023-04-21T10:35:23;9.77;;;4.23;;
8285;SDS011;4181;43.416;24.598;2023-04-21T10:37:49;11.13;;;4.57;;
8285;SDS011;4181;43.416;24.598;2023-04-21T10:42:55;9.77;;;3.53;;
8285;SDS011;4181;43.416;24.598;2023-04-21T10:45:24;12.97;;;4.20;;
8285;SDS011;4181;43.416;24.598;2023-04-21T10:47:51;12.70;;;4.30;;
8285;SDS011;4181;43.416;24.598;2023-04-21T10:50:18;11.83;;;3.87;;
8285;SDS011;4181;43.416;24.598;2023-04-21T10:52:50;14.20;;;3.90;;
8285;SDS011;4181;43.416;24.598;2023-04-21T10:55:35;5.17;;;3.40;;
8285;SDS011;4181;43.416;24.598;2023-04-21T10:58:05;10.73;;;3.83;;
8285;SDS011;4181;43.416;24.598;2023-04-21T11:00:33;8.50;;;3.27;;
8285;SDS011;4181;43.416;24.598;2023-04-21T11:03:02;10.50;;;3.77;;
8285;SDS011;4181;43.416;24.598;2023-04-21T11:05:34;8.57;;;3.57;;
8285;SDS011;4181;43.416;24.598;2023-04-21T11:08:12;18.47;;;4.00;;
8285;SDS011;4181;43.416;24.598;2023-04-21T11:10:46;11.57;;;3.77;;
8285;SDS011;4181;43.416;24.598;2023-04-21T11:13:14;12.10;;;3.97;;
8285;SDS011;4181;43.416;24.598;2023-04-21T11:15:40;13.13;;;3.33;;
8285;SDS011;4181;43.416;24.598;2023-04-21T11:18:05;8.80;;;3.00;;
8285;SDS011;4181;43.416;24.598;2023-04-21T11:20:32;8.57;;;3.40;;
8285;SDS011;4181;43.416;24.598;2023-04-21T11:22:58;7.37;;;3.27;;
8285;SDS011;4181;43.416;24.598;2023-04-21T11:25:23;9.83;;;3.37;;
8285;SDS011;4181;43.416;24.598;2023-04-21T11:27:55;10.80;;;3.93;;
8285;SDS011;4181;43.416;24.598;2023-04-21T11:30:30;10.67;;;3.67;;
8285;SDS011;4181;43.416;24.598;2023-04-21T11:32:58;10.70;;;3.77;;
8285;SDS011;4181;43.416;24.598;2023-04-21T11:35:23;8.43;;;3.10;;
8285;SDS011;4181;43.416;24.598;2023-04-21T11:37:49;11.87;;;3.33;;
8285;SDS011;4181;43.416;24.598;2023-04-21T11:40:18;8.67;;;3.17;;
8285;SDS011;4181;43.416;24.598;2023-04-21T11:42:43;7.83;;;3.30;;
8285;SDS011;4181;43.416;24.598;2023-04-21T11:45:16;9.40;;;3.33;;
8285;SDS011;4181;43.416;24.598;2023-04-21T11:47:43;6.77;;;2.73;;
8285;SDS011;4181;43.416;24.598;2023-04-21T11:50:09;6.23;;;3.03;;
8285;SDS011;4181;43.416;24.598;2023-04-21T11:52:35;9.03;;;2.90;;
8285;SDS011;4181;43.416;24.598;2023-04-21T11:55:02;9.03;;;3.77;;
8285;SDS011;4181;43.416;24.598;2023-04-21T11:57:35;7.47;;;2.77;;
8285;SDS011;4181;43.416;24.598;2023-04-21T12:00:02;6.67;;;3.10;;
8285;SDS011;4181;43.416;24.598;2023-04-21T12:02:30;9.73;;;3.00;;
8285;SDS011;4181;43.416;24.598;2023-04-21T12:07:24;10.87;;;2.90;;
8285;SDS011;4181;43.416;24.598;2023-04-21T12:09:52;6.80;;;3.47;;
8285;SDS011;4181;43.416;24.598;2023-04-21T12:12:18;7.00;;;3.00;;
8285;SDS011;4181;43.416;24.598;2023-04-21T12:14:44;9.73;;;3.70;;
8285;SDS011;4181;43.416;24.598;2023-04-21T12:17:09;11.43;;;3.00;;
8285;SDS011;4181;43.416;24.598;2023-04-21T12:22:07;7.23;;;3.20;;
8285;SDS011;4181;43.416;24.598;2023-04-21T12:24:33;6.80;;;3.27;;
8285;SDS011;4181;43.416;24.598;2023-04-21T12:26:59;12.23;;;3.77;;
8285;SDS011;4181;43.416;24.598;2023-04-21T12:29:25;9.17;;;3.33;;
8285;SDS011;4181;43.416;24.598;2023-04-21T12:31:51;10.50;;;3.60;;
8285;SDS011;4181;43.416;24.598;2023-04-21T12:34:16;14.23;;;4.80;;
8285;SDS011;4181;43.416;24.598;2023-04-21T12:36:41;9.00;;;3.30;;
8285;SDS011;4181;43.416;24.598;2023-04-21T12:39:07;13.53;;;4.10;;
8285;SDS011;4181;43.416;24.598;2023-04-21T12:41:34;6.87;;;4.00;;
8285;SDS011;4181;43.416;24.598;2023-04-21T12:43:59;10.33;;;3.57;;
8285;SDS011;4181;43.416;24.598;2023-04-21T12:46:24;9.20;;;3.27;;
8285;SDS011;4181;43.416;24.598;2023-04-21T12:48:50;10.10;;;3.90;;
8285;SDS011;4181;43.416;24.598;2023-04-21T12:51:16;8.43;;;3.70;;
8285;SDS011;4181;43.416;24.598;2023-04-21T12:53:42;8.67;;;3.63;;
8285;SDS011;4181;43.416;24.598;2023-04-21T12:56:07;7.33;;;3.80;;
8285;SDS011;4181;43.416;24.598;2023-04-21T12:58:33;9.07;;;3.50;;
8285;SDS011;4181;43.416;24.598;2023-04-21T13:00:58;8.87;;;3.50;;
8285;SDS011;4181;43.416;24.598;2023-04-21T13:03:24;6.40;;;3.90;;
8285;SDS011;4181;43.416;24.598;2023-04-21T13:05:51;4.43;;;3.80;;
8285;SDS011;4181;43.416;24.598;2023-04-21T13:08:16;11.10;;;4.23;;
8285;SDS011;4181;43.416;24.598;2023-04-21T13:10:42;6.30;;;3.97;;
8285;SDS011;4181;43.416;24.598;2023-04-21T13:13:09;14.10;;;4.80;;
8285;SDS011;4181;43.416;24.598;2023-04-21T13:15:35;7.77;;;3.83;;
8285;SDS011;4181;43.416;24.598;2023-04-21T13:18:00;9.00;;;4.37;;
8285;SDS011;4181;43.416;24.598;2023-04-21T13:20:26;7.97;;;4.20;;
8285;SDS011;4181;43.416;24.598;2023-04-21T13:22:51;10.27;;;3.97;;
8285;SDS011;4181;43.416;24.598;2023-04-21T13:25:17;8.13;;;3.93;;
8285;SDS011;4181;43.416;24.598;2023-04-21T13:27:42;10.33;;;4.30;;
8285;SDS011;4181;43.416;24.598;2023-04-21T13:30:09;10.47;;;4.50;;
8285;SDS011;4181;43.416;24.598;2023-04-21T13:32:36;11.87;;;4.70;;
8285;SDS011;4181;43.416;24.598;2023-04-21T13:35:02;5.60;;;3.50;;
8285;SDS011;4181;43.416;24.598;2023-04-21T13:37:35;8.90;;;4.43;;
8285;SDS011;4181;43.416;24.598;2023-04-21T13:40:04;8.70;;;3.80;;
8285;SDS011;4181;43.416;24.598;2023-04-21T13:42:31;7.37;;;4.30;;
8285;SDS011;4181;43.416;24.598;2023-04-21T13:44:57;7.80;;;4.23;;
8285;SDS011;4181;43.416;24.598;2023-04-21T13:47:23;9.37;;;3.80;;
8285;SDS011;4181;43.416;24.598;2023-04-21T13:49:49;8.17;;;4.57;;
8285;SDS011;4181;43.416;24.598;2023-04-21T13:52:15;10.37;;;4.47;;
8285;SDS011;4181;43.416;24.598;2023-04-21T13:54:41;10.43;;;6.37;;
8285;SDS011;4181;43.416;24.598;2023-04-21T13:57:06;10.27;;;5.83;;
8285;SDS011;4181;43.416;24.598;2023-04-21T13:59:32;11.47;;;5.50;;
8285;SDS011;4181;43.416;24.598;2023-04-21T14:01:58;9.23;;;4.07;;
8285;SDS011;4181;43.416;24.598;2023-04-21T14:04:23;8.47;;;3.90;;
8285;SDS011;4181;43.416;24.598;2023-04-21T14:06:49;7.07;;;4.00;;
8285;SDS011;4181;43.416;24.598;2023-04-21T14:09:15;6.67;;;4.10;;
8285;SDS011;4181;43.416;24.598;2023-04-21T14:11:40;10.17;;;4.20;;
8285;SDS011;4181;43.416;24.598;2023-04-21T14:14:06;5.13;;;3.73;;
8285;SDS011;4181;43.416;24.598;2023-04-21T14:16:32;10.17;;;4.40;;
8285;SDS011;4181;43.416;24.598;2023-04-21T14:18:57;7.80;;;3.63;;
8285;SDS011;4181;43.416;24.598;2023-04-21T14:21:23;11.17;;;4.30;;
8285;SDS011;4181;43.416;24.598;2023-04-21T14:23:48;8.53;;;4.00;;
8285;SDS011;4181;43.416;24.598;2023-04-21T14:26:14;4.87;;;3.57;;
8285;SDS011;4181;43.416;24.598;2023-04-21T14:28:39;12.00;;;5.93;;
8285;SDS011;4181;43.416;24.598;2023-04-21T14:31:05;9.67;;;3.77;;
8285;SDS011;4181;43.416;24.598;2023-04-21T14:33:31;10.03;;;5.03;;
8285;SDS011;4181;43.416;24.598;2023-04-21T14:35:57;8.00;;;4.20;;
8285;SDS011;4181;43.416;24.598;2023-04-21T14:38:23;9.40;;;4.97;;
8285;SDS011;4181;43.416;24.598;2023-04-21T14:40:49;6.63;;;3.70;;
8285;SDS011;4181;43.416;24.598;2023-04-21T14:43:18;7.90;;;3.53;;
8285;SDS011;4181;43.416;24.598;2023-04-21T14:45:44;6.70;;;3.70;;
8285;SDS011;4181;43.416;24.598;2023-04-21T14:48:10;16.97;;;9.27;;
8285;SDS011;4181;43.416;24.598;2023-04-21T14:50:38;11.67;;;6.33;;
8285;SDS011;4181;43.416;24.598;2023-04-21T14:53:04;6.37;;;4.07;;
8285;SDS011;4181;43.416;24.598;2023-04-21T14:55:30;9.60;;;4.53;;
8285;SDS011;4181;43.416;24.598;2023-04-21T14:57:56;10.57;;;5.03;;
8285;SDS011;4181;43.416;24.598;2023-04-21T15:00:21;9.40;;;4.13;;
8285;SDS011;4181;43.416;24.598;2023-04-21T15:02:47;11.67;;;5.97;;
8285;SDS011;4181;43.416;24.598;2023-04-21T15:05:13;10.60;;;5.50;;